Time;durP1;ratioP1;P1;durP2;ratioP2;P2;SDS_P1;SDS_P2;PMS_P1;PMS_P2;Temp;Humidity;BMP_temperature;BMP_pressure;BME280_temperature;BME280_humidity;BME280_pressure;Samples;Min_cycle;Max_cycle;Signal;HPM_P1;HPM_P2
2022/04/15 00:01:18;;;;;;;12.57;9.17;;;;;;;15.73;64.05;101196.81;5063514;28;20247;-67
2022/04/15 00:03:46;;;;;;;12.13;9.23;;;;;;;15.72;64.13;101195.13;5063104;28;20227;-67
2022/04/15 00:06:13;;;;;;;15.40;8.97;;;;;;;15.70;64.12;101187.25;5063824;28;20303;-67
2022/04/15 00:08:41;;;;;;;11.03;9.00;;;;;;;15.64;64.56;101197.78;5062380;28;20212;-67
2022/04/15 00:11:10;;;;;;;14.63;10.07;;;;;;;15.72;64.16;101195.13;5063176;28;20206;-66
2022/04/15 00:13:41;;;;;;;11.73;9.37;;;;;;;15.76;64.02;101199.13;5062937;28;20207;-67
2022/04/15 00:16:09;;;;;;;12.83;9.87;;;;;;;15.76;63.87;101191.94;5064689;28;20203;-67
2022/04/15 00:18:37;;;;;;;12.97;10.10;;;;;;;15.79;63.67;101190.78;5067155;28;20550;-67
2022/04/15 00:21:05;;;;;;;12.77;9.33;;;;;;;15.72;63.74;101195.97;5063891;28;20242;-67
2022/04/15 00:23:33;;;;;;;13.13;9.77;;;;;;;15.71;63.92;101193.44;5063190;28;20241;-68
2022/04/15 00:26:01;;;;;;;14.67;10.40;;;;;;;14.98;66.55;101196.66;5062273;28;20214;-67
2022/04/15 00:28:29;;;;;;;14.37;10.20;;;;;;;15.37;65.47;101201.50;5061431;28;20227;-67
2022/04/15 00:30:59;;;;;;;13.93;11.30;;;;;;;15.54;64.74;101202.44;5064459;28;20287;-67
2022/04/15 00:33:27;;;;;;;16.90;11.10;;;;;;;15.58;64.07;101196.56;5063390;28;20208;-67
2022/04/15 00:35:54;;;;;;;15.13;11.17;;;;;;;15.63;63.91;101204.13;5063335;28;20203;-67
2022/04/15 00:38:22;;;;;;;14.00;11.27;;;;;;;15.60;64.22;101197.25;5063885;28;20207;-67
2022/04/15 00:40:50;;;;;;;13.43;10.50;;;;;;;15.60;64.22;101199.09;5060280;28;20221;-67
2022/04/15 00:43:17;;;;;;;12.77;10.83;;;;;;;15.55;64.96;101201.44;5063580;28;20233;-67
2022/04/15 00:45:46;;;;;;;14.47;11.67;;;;;;;15.35;65.44;101199.00;5065574;28;20225;-67
2022/04/15 00:48:19;;;;;;;18.60;12.37;;;;;;;15.23;65.88;101191.41;5061923;28;20208;-66
2022/04/15 00:50:47;;;;;;;20.90;12.60;;;;;;;15.20;65.97;101189.91;5059879;28;20200;-68
2022/04/15 00:53:25;;;;;;;17.50;12.87;;;;;;;15.16;65.52;101193.06;5064459;28;20248;-67
2022/04/15 00:55:57;;;;;;;16.23;12.23;;;;;;;15.14;65.96;101195.88;5059406;28;20211;-67
2022/04/15 00:58:26;;;;;;;17.07;12.27;;;;;;;15.02;66.53;101192.69;5063137;28;20644;-67
2022/04/15 01:00:56;;;;;;;17.73;12.57;;;;;;;15.09;66.07;101187.53;5064211;28;20226;-67
2022/04/15 01:03:26;;;;;;;16.90;12.47;;;;;;;14.97;66.41;101196.81;5063636;28;20214;-67
2022/04/15 01:05:58;;;;;;;18.47;13.93;;;;;;;15.00;65.84;101204.50;5065090;28;20206;-67
2022/04/15 01:08:29;;;;;;;18.40;14.53;;;;;;;15.11;65.71;101195.38;5061861;28;20752;-67
2022/04/15 01:10:58;;;;;;;17.73;12.73;;;;;;;15.13;65.70;101196.88;5060585;28;20213;-66
2022/04/15 01:13:26;;;;;;;18.10;14.00;;;;;;;14.91;66.12;101202.78;5064412;28;20204;-66
2022/04/15 01:15:56;;;;;;;17.83;13.37;;;;;;;14.87;66.25;101193.41;5062534;28;20203;-67
2022/04/15 01:18:26;;;;;;;18.87;14.20;;;;;;;14.78;66.86;101199.69;5065737;28;20656;-67
2022/04/15 01:20:54;;;;;;;20.97;13.43;;;;;;;14.43;68.36;101209.47;5064262;28;20196;-67
2022/04/15 01:23:24;;;;;;;18.50;14.33;;;;;;;14.81;66.99;101204.72;5065473;28;20239;-67
2022/04/15 01:25:52;;;;;;;19.03;14.40;;;;;;;14.82;66.65;101206.41;5063898;28;20218;-67
2022/04/15 01:28:20;;;;;;;19.50;15.30;;;;;;;14.74;66.95;101201.00;5062866;28;20302;-67
2022/04/15 01:30:49;;;;;;;19.63;15.67;;;;;;;14.81;66.47;101204.72;5062509;28;20227;-67
2022/04/15 01:33:17;;;;;;;20.50;15.40;;;;;;;14.68;67.23;101210.50;5060964;28;20697;-68
2022/04/15 01:35:49;;;;;;;18.63;14.87;;;;;;;14.73;66.97;101212.69;5060906;28;20303;-67
2022/04/15 01:38:18;;;;;;;19.40;14.90;;;;;;;14.80;66.72;101206.56;5061857;28;20241;-66
2022/04/15 01:40:47;;;;;;;17.70;14.73;;;;;;;14.85;66.20;101211.44;5060377;28;20326;-66
2022/04/15 01:43:15;;;;;;;20.17;14.43;;;;;;;14.82;66.27;101201.91;5063970;28;20233;-67
2022/04/15 01:45:43;;;;;;;19.50;14.30;;;;;;;14.74;66.39;101209.88;5062093;28;20215;-67
2022/04/15 01:48:11;;;;;;;19.60;14.37;;;;;;;14.67;67.07;101200.81;5062809;28;20797;-66
2022/04/15 01:50:39;;;;;;;17.73;14.33;;;;;;;14.65;66.99;101206.31;5060815;28;20219;-67
2022/04/15 01:53:06;;;;;;;19.17;14.70;;;;;;;14.64;67.13;101215.31;5062591;28;20246;-67
2022/04/15 01:55:35;;;;;;;16.97;14.53;;;;;;;14.64;67.43;101215.31;5060231;28;20206;-67
2022/04/15 01:58:04;;;;;;;17.60;14.10;;;;;;;14.62;67.02;101211.94;5060736;28;20247;-65
2022/04/15 02:00:32;;;;;;;19.43;14.77;;;;;;;14.47;67.61;101223.34;5058925;28;20242;-69
2022/04/15 02:03:00;;;;;;;18.10;14.13;;;;;;;14.09;69.24;101219.16;5064194;28;20238;-69
2022/04/15 02:05:28;;;;;;;18.37;14.37;;;;;;;14.07;69.34;101216.63;5061027;28;20208;-67
2022/04/15 02:07:56;;;;;;;23.07;15.20;;;;;;;14.01;69.87;101224.41;5064054;28;20685;-67
2022/04/15 02:10:24;;;;;;;17.93;13.63;;;;;;;14.15;68.78;101223.88;5058703;28;20206;-67
2022/04/15 02:12:51;;;;;;;17.63;13.97;;;;;;;13.89;69.96;101226.47;5061625;28;21163;-67
2022/04/15 02:15:21;;;;;;;19.17;14.50;;;;;;;14.12;69.51;101225.03;5062451;28;20213;-67
2022/04/15 02:17:48;;;;;;;19.47;13.90;;;;;;;14.04;69.84;101232.13;5060180;28;20341;-69
2022/04/15 02:20:16;;;;;;;20.80;15.17;;;;;;;14.32;68.38;101231.03;5061467;28;20212;-67
2022/04/15 02:22:44;;;;;;;21.40;14.40;;;;;;;14.24;68.78;101228.31;5063057;28;20313;-66
2022/04/15 02:25:11;;;;;;;18.67;14.53;;;;;;;14.37;68.35;101236.75;5060046;28;20231;-67
2022/04/15 02:27:39;;;;;;;21.27;14.60;;;;;;;14.53;67.26;101231.56;5061124;28;20593;-66
2022/04/15 02:30:07;;;;;;;18.10;13.67;;;;;;;14.60;67.18;101237.13;5062578;28;20206;-67
2022/04/15 02:32:36;;;;;;;19.93;14.03;;;;;;;14.66;66.89;101240.00;5061698;28;20209;-67
2022/04/15 02:35:08;;;;;;;20.20;15.00;;;;;;;14.66;66.97;101236.50;5065242;28;20215;-66
2022/04/15 02:37:35;;;;;;;21.43;14.33;;;;;;;14.64;66.85;101239.31;5056485;28;20262;-67
2022/04/15 02:40:05;;;;;;;20.00;14.63;;;;;;;14.57;67.10;101238.28;5062985;28;20225;-66
2022/04/15 02:42:34;;;;;;;19.03;14.37;;;;;;;14.58;66.90;101231.94;5063912;28;20204;-67
2022/04/15 02:45:03;;;;;;;20.00;14.90;;;;;;;14.56;66.91;101233.94;5062128;28;20291;-67
2022/04/15 02:47:31;;;;;;;16.83;14.07;;;;;;;14.61;66.82;101242.28;5065039;28;21313;-67
2022/04/15 02:50:00;;;;;;;20.93;14.63;;;;;;;14.56;66.96;101238.44;5061615;28;20639;-66
2022/04/15 02:52:28;;;;;;;20.40;14.60;;;;;;;14.57;66.89;101243.63;5061481;28;20211;-67
2022/04/15 02:54:56;;;;;;;20.00;14.43;;;;;;;14.53;67.08;101236.06;5062949;28;20277;-67
2022/04/15 02:57:23;;;;;;;21.97;14.87;;;;;;;14.56;66.76;101233.09;5061248;28;20655;-67
2022/04/15 02:59:51;;;;;;;21.43;15.43;;;;;;;14.56;66.72;101233.94;5061853;28;20220;-66
2022/04/15 03:02:19;;;;;;;21.30;14.03;;;;;;;14.57;66.75;101240.09;5061145;28;20894;-67
2022/04/15 03:04:47;;;;;;;19.47;14.33;;;;;;;14.56;66.70;101236.59;5063578;28;20776;-67
2022/04/15 03:07:16;;;;;;;17.87;14.53;;;;;;;14.43;67.66;101237.97;5061276;28;20292;-66
2022/04/15 03:09:44;;;;;;;20.37;14.07;;;;;;;14.31;67.87;101237.38;5064798;28;20345;-67
2022/04/15 03:12:11;;;;;;;22.27;15.47;;;;;;;14.44;67.39;101239.66;5065069;28;20207;-66
2022/04/15 03:14:40;;;;;;;19.43;15.13;;;;;;;14.48;67.04;101236.53;5062910;28;20293;-67
2022/04/15 03:17:07;;;;;;;17.70;14.53;;;;;;;14.48;67.05;101231.19;5060708;28;20211;-66
2022/04/15 03:19:35;;;;;;;19.83;15.93;;;;;;;14.47;66.99;101231.34;5064241;28;20332;-66
2022/04/15 03:22:05;;;;;;;20.17;14.90;;;;;;;14.47;66.87;101237.53;5062680;28;20726;-67
2022/04/15 03:24:34;;;;;;;19.77;15.57;;;;;;;14.44;67.18;101229.81;5060178;28;20319;-66
2022/04/15 03:27:01;;;;;;;18.53;14.73;;;;;;;14.44;67.08;101235.16;5062482;28;20208;-65
2022/04/15 03:29:29;;;;;;;19.33;15.00;;;;;;;14.46;66.77;101233.19;5063069;28;20203;-66
2022/04/15 03:31:57;;;;;;;21.73;15.63;;;;;;;14.43;67.03;101233.47;5062079;28;20309;-66
2022/04/15 03:34:24;;;;;;;18.57;15.17;;;;;;;14.40;67.01;101238.31;5061016;28;20240;-67
2022/04/15 03:36:52;;;;;;;20.23;14.83;;;;;;;14.41;67.05;101230.16;5061179;28;20291;-66
2022/04/15 03:39:20;;;;;;;19.40;14.63;;;;;;;14.41;66.96;101231.97;5061384;28;20243;-66
2022/04/15 03:41:49;;;;;;;20.47;13.83;;;;;;;14.41;66.93;101231.97;5060911;28;20305;-67
2022/04/15 03:44:17;;;;;;;19.70;15.07;;;;;;;14.39;67.12;101234.81;5062832;28;20267;-67
2022/04/15 03:46:44;;;;;;;20.83;15.30;;;;;;;14.35;66.85;101236.06;5058808;28;20660;-68
2022/04/15 03:49:12;;;;;;;20.90;16.07;;;;;;;14.31;67.10;101230.19;5061066;28;20671;-67
2022/04/15 03:51:57;;;;;;;18.60;14.90;;;;;;;14.32;67.18;101247.06;5062207;28;20289;-68
2022/04/15 03:54:25;;;;;;;21.53;14.70;;;;;;;14.28;67.16;101245.66;5061466;28;20370;-67
2022/04/15 03:56:54;;;;;;;24.20;15.37;;;;;;;14.28;67.43;101245.66;5061224;28;20608;-65
2022/04/15 03:59:22;;;;;;;22.73;15.20;;;;;;;14.27;67.33;101244.00;5065247;28;20413;-68
2022/04/15 04:01:50;;;;;;;23.20;16.33;;;;;;;14.21;67.56;101245.44;5061782;28;20295;-66
2022/04/15 04:04:18;;;;;;;21.37;15.20;;;;;;;14.20;67.36;101249.09;5061803;28;20254;-66
2022/04/15 04:06:45;;;;;;;25.00;16.23;;;;;;;14.14;67.96;101254.22;5061733;28;20550;-67
2022/04/15 04:09:13;;;;;;;25.03;15.27;;;;;;;14.16;67.80;101254.91;5058933;28;20226;-67
2022/04/15 04:11:41;;;;;;;20.27;14.97;;;;;;;14.17;67.63;101262.72;5064979;28;20310;-66
2022/04/15 04:14:10;;;;;;;24.90;15.77;;;;;;;14.20;67.54;101261.59;5062031;28;20223;-67
2022/04/15 04:16:42;;;;;;;24.23;16.33;;;;;;;14.18;67.22;101267.09;5061136;28;20203;-66
2022/04/15 04:19:09;;;;;;;19.73;15.67;;;;;;;14.18;66.96;101268.91;5059838;28;20305;-66
2022/04/15 04:21:37;;;;;;;20.03;16.33;;;;;;;14.13;67.42;101264.03;5063353;28;20303;-66
2022/04/15 04:24:06;;;;;;;21.87;15.80;;;;;;;14.15;67.39;101267.41;5067762;28;20213;-66
2022/04/15 04:26:34;;;;;;;21.43;16.00;;;;;;;14.18;67.65;101266.25;5064829;28;20563;-67
2022/04/15 04:29:01;;;;;;;21.97;15.57;;;;;;;14.18;67.25;101260.91;5059279;28;20549;-66
2022/04/15 04:31:30;;;;;;;21.83;15.33;;;;;;;14.16;67.33;101268.25;5065461;28;20310;-67
2022/04/15 04:33:58;;;;;;;22.70;15.53;;;;;;;14.14;67.46;101275.56;5065218;28;20236;-67
2022/04/15 04:36:26;;;;;;;22.73;16.17;;;;;;;14.13;67.63;101284.53;5060718;28;20213;-67
2022/04/15 04:38:53;;;;;;;21.27;16.17;;;;;;;14.06;67.95;101280.81;5064514;28;20210;-67
2022/04/15 04:41:21;;;;;;;20.30;16.43;;;;;;;14.09;67.69;101283.16;5067165;28;20215;-66
2022/04/15 04:43:49;;;;;;;22.57;17.13;;;;;;;14.08;67.95;101289.47;5064616;28;20203;-67
2022/04/15 04:46:17;;;;;;;19.73;16.20;;;;;;;14.05;67.93;101292.47;5065694;28;20337;-68
2022/04/15 04:48:53;;;;;;;21.40;15.40;;;;;;;14.06;67.92;101294.97;5064881;28;20203;-67
2022/04/15 04:51:21;;;;;;;22.47;15.37;;;;;;;14.12;67.58;101294.38;5067092;28;20235;-66
2022/04/15 04:53:49;;;;;;;23.00;16.23;;;;;;;14.12;67.43;101301.53;5066600;28;20247;-67
2022/04/15 04:56:16;;;;;;;25.53;16.63;;;;;;;14.15;67.56;101303.91;5065047;28;20214;-66
2022/04/15 04:58:44;;;;;;;21.63;16.70;;;;;;;14.18;67.34;101303.59;5066257;28;20310;-68
2022/04/15 05:01:12;;;;;;;20.50;16.43;;;;;;;14.17;67.65;101307.25;5064439;28;20301;-67
2022/04/15 05:03:40;;;;;;;19.30;16.23;;;;;;;14.16;67.92;101314.41;5063266;28;20210;-67
2022/04/15 05:06:09;;;;;;;25.10;17.70;;;;;;;14.14;67.89;101318.22;5065536;28;20238;-67
2022/04/15 05:08:36;;;;;;;21.13;16.77;;;;;;;14.07;68.28;101322.50;5068184;28;20301;-67
2022/04/15 05:11:04;;;;;;;21.63;17.60;;;;;;;13.94;69.06;101318.34;5066508;28;20246;-67
2022/04/15 05:13:32;;;;;;;22.03;17.27;;;;;;;14.06;68.17;101320.81;5065795;28;20213;-67
2022/04/15 05:15:59;;;;;;;22.70;17.23;;;;;;;14.09;67.97;101318.66;5064806;28;20298;-67
2022/04/15 05:18:27;;;;;;;27.83;17.53;;;;;;;14.11;68.21;101316.69;5062279;28;20218;-66
2022/04/15 05:20:55;;;;;;;21.17;17.50;;;;;;;14.13;67.89;101322.72;5062633;28;20215;-67
2022/04/15 05:23:24;;;;;;;21.50;16.87;;;;;;;14.14;67.95;101329.75;5067059;28;20756;-67
2022/04/15 05:25:52;;;;;;;22.67;17.43;;;;;;;14.16;67.83;101333.06;5065960;28;20227;-66
2022/04/15 05:28:19;;;;;;;26.27;18.63;;;;;;;14.16;67.89;101327.75;5066438;28;20208;-66
2022/04/15 05:30:47;;;;;;;23.43;18.20;;;;;;;14.21;67.83;101332.63;5061968;28;20234;-67
2022/04/15 05:33:15;;;;;;;24.67;17.87;;;;;;;14.21;68.02;101335.31;5066097;28;20261;-66
2022/04/15 05:35:42;;;;;;;23.93;17.97;;;;;;;14.24;67.96;101338.53;5065107;28;20210;-66
2022/04/15 05:38:10;;;;;;;24.60;17.83;;;;;;;14.26;68.14;101343.69;5064956;28;20347;-67
2022/04/15 05:40:39;;;;;;;25.37;19.47;;;;;;;14.28;68.00;101341.72;5066159;28;20708;-67
2022/04/15 05:43:07;;;;;;;23.00;18.10;;;;;;;14.29;68.08;101338.06;5064767;28;20231;-66
2022/04/15 05:45:35;;;;;;;27.43;19.37;;;;;;;14.27;68.47;101340.88;5063910;28;20230;-67
2022/04/15 05:48:02;;;;;;;24.50;19.20;;;;;;;14.18;69.07;101343.59;5063273;28;20211;-67
2022/04/15 05:50:30;;;;;;;25.90;19.60;;;;;;;14.19;68.85;101342.63;5067244;28;20203;-68
2022/04/15 05:52:58;;;;;;;24.63;19.23;;;;;;;14.22;68.99;101350.31;5062964;28;20313;-68
2022/04/15 05:55:26;;;;;;;25.33;19.97;;;;;;;14.36;68.57;101354.28;5063823;28;20208;-67
2022/04/15 05:57:55;;;;;;;25.37;19.80;;;;;;;14.40;68.38;101353.88;5064248;28;20212;-66
2022/04/15 06:00:23;;;;;;;28.10;20.17;;;;;;;14.48;67.85;101361.97;5065619;28;20301;-67
2022/04/15 06:02:50;;;;;;;27.33;20.77;;;;;;;14.44;68.54;101363.25;5064767;28;20223;-67
2022/04/15 06:05:28;;;;;;;25.50;20.80;;;;;;;14.54;68.12;101363.19;5065683;28;20306;-67
2022/04/15 06:07:56;;;;;;;27.23;21.10;;;;;;;14.56;67.99;101366.53;5064877;28;20402;-67
2022/04/15 06:10:23;;;;;;;25.30;20.97;;;;;;;14.61;67.84;101370.44;5062286;28;20233;-67
2022/04/15 06:13:04;;;;;;;29.13;21.27;;;;;;;14.58;67.95;101367.25;5065292;28;20457;-67
2022/04/15 06:15:34;;;;;;;28.17;22.63;;;;;;;14.70;67.65;101368.66;5065360;28;20277;-68
2022/04/15 06:18:03;;;;;;;31.60;22.23;;;;;;;14.69;68.02;101366.97;5064728;28;20315;-67
2022/04/15 06:20:31;;;;;;;29.20;22.10;;;;;;;14.77;68.14;101374.25;5066591;28;20214;-67
2022/04/15 06:22:58;;;;;;;29.17;23.03;;;;;;;14.76;68.40;101383.25;5064161;28;20659;-67
2022/04/15 06:25:27;;;;;;;28.57;22.73;;;;;;;14.81;68.12;101379.13;5065382;28;20712;-66
2022/04/15 06:27:55;;;;;;;31.77;23.97;;;;;;;14.90;68.23;101380.03;5063016;28;20215;-68
2022/04/15 06:30:24;;;;;;;34.07;23.57;;;;;;;14.97;68.20;101376.59;5064031;28;20211;-66
2022/04/15 06:32:54;;;;;;;33.03;24.20;;;;;;;14.97;68.42;101381.09;5064492;28;20203;-66
2022/04/15 06:35:22;;;;;;;33.47;25.80;;;;;;;14.59;70.06;101380.44;5063987;28;20737;-66
2022/04/15 06:37:49;;;;;;;30.40;24.03;;;;;;;14.52;70.28;101378.50;5063670;28;20314;-67
2022/04/15 06:40:17;;;;;;;32.87;24.17;;;;;;;14.89;68.88;101389.03;5062972;28;20308;-67
2022/04/15 06:42:45;;;;;;;33.37;23.73;;;;;;;15.07;68.39;101389.84;5064913;28;20666;-66
2022/04/15 06:45:13;;;;;;;32.23;24.93;;;;;;;14.80;70.37;101392.63;5062648;28;20362;-67
2022/04/15 06:47:41;;;;;;;33.30;24.70;;;;;;;15.02;69.44;101392.16;5066409;28;20698;-69
2022/04/15 06:50:10;;;;;;;34.67;25.70;;;;;;;15.18;68.58;101399.47;5063518;28;20235;-67
2022/04/15 06:52:38;;;;;;;31.90;23.17;;;;;;;15.26;68.64;101402.19;5065608;28;20212;-69
2022/04/15 06:55:07;;;;;;;30.13;24.63;;;;;;;15.28;68.88;101401.03;5062304;28;20242;-68
2022/04/15 06:57:35;;;;;;;34.63;25.83;;;;;;;15.38;68.63;101399.13;5066166;28;20211;-66
2022/04/15 07:00:04;;;;;;;31.57;24.80;;;;;;;15.52;67.42;101407.53;5063461;28;20216;-67
2022/04/15 07:02:33;;;;;;;32.87;26.20;;;;;;;15.43;67.92;101406.66;5063891;28;20204;-68
2022/04/15 07:05:01;;;;;;;32.57;25.17;;;;;;;15.56;67.54;101409.78;5058131;28;20257;-67
2022/04/15 07:07:30;;;;;;;31.50;24.90;;;;;;;15.60;67.13;101411.13;5060929;28;20349;-68
2022/04/15 07:09:58;;;;;;;31.30;25.60;;;;;;;15.70;67.02;101416.38;5059166;28;20226;-68
2022/04/15 07:12:26;;;;;;;33.77;25.47;;;;;;;15.58;67.25;101415.78;5064134;28;20214;-68
2022/04/15 07:14:53;;;;;;;36.07;25.93;;;;;;;15.72;66.59;101411.72;5063497;28;20294;-66
2022/04/15 07:17:21;;;;;;;30.20;24.23;;;;;;;15.77;66.57;101412.06;5061866;28;20212;-68
2022/04/15 07:19:49;;;;;;;30.13;24.07;;;;;;;15.77;66.90;101412.06;5060999;28;20210;-67
2022/04/15 07:22:18;;;;;;;31.83;24.50;;;;;;;15.90;65.99;101414.31;5059487;28;20218;-67
2022/04/15 07:24:47;;;;;;;28.43;22.90;;;;;;;15.88;65.82;101418.97;5061429;28;20211;-67
2022/04/15 07:27:15;;;;;;;31.13;23.33;;;;;;;15.97;65.29;101413.50;5060707;28;20230;-69
2022/04/15 07:29:45;;;;;;;29.87;23.67;;;;;;;15.73;65.56;101424.09;5059473;28;20548;-67
2022/04/15 07:32:13;;;;;;;29.90;22.67;;;;;;;15.93;65.67;101417.50;5056385;28;20211;-67
2022/04/15 07:34:41;;;;;;;28.77;22.90;;;;;;;16.06;65.03;101422.41;5061087;28;20261;-66
2022/04/15 07:37:09;;;;;;;29.40;22.40;;;;;;;16.17;64.60;101424.81;5060658;28;20673;-66
2022/04/15 07:39:37;;;;;;;30.52;23.40;;;;;;;16.25;64.33;101429.34;5064467;28;20814;-67
2022/04/15 07:42:07;;;;;;;28.83;22.77;;;;;;;16.36;63.72;101431.75;5065580;28;20256;-68
2022/04/15 07:44:35;;;;;;;30.80;21.87;;;;;;;16.42;63.35;101431.91;5063405;28;20207;-67
2022/04/15 07:47:04;;;;;;;31.00;22.63;;;;;;;16.53;63.20;101425.44;5062231;28;20227;-68
2022/04/15 07:49:33;;;;;;;28.77;21.87;;;;;;;16.65;63.12;101429.47;5063798;28;20211;-67
2022/04/15 07:52:00;;;;;;;28.93;22.57;;;;;;;16.76;62.46;101426.50;5063517;28;20629;-67
2022/04/15 07:54:28;;;;;;;28.23;20.73;;;;;;;16.78;63.50;101429.84;5059987;28;20242;-68
2022/04/15 07:56:56;;;;;;;27.00;21.37;;;;;;;16.83;63.36;101424.00;5062671;28;20207;-69
2022/04/15 07:59:26;;;;;;;27.10;20.40;;;;;;;16.97;62.42;101428.72;5066889;28;20282;-73
2022/04/15 08:01:53;;;;;;;31.53;20.63;;;;;;;17.18;62.64;101430.88;5069756;28;20667;-68
2022/04/15 08:04:21;;;;;;;25.10;20.37;;;;;;;17.37;60.43;101435.06;5064760;28;20671;-67
2022/04/15 08:06:50;;;;;;;24.90;20.20;;;;;;;17.42;60.29;101436.22;5065620;28;20318;-67
2022/04/15 08:09:21;;;;;;;30.93;20.30;;;;;;;17.46;59.91;101434.03;5062659;28;20755;-69
2022/04/15 08:11:50;;;;;;;25.80;19.47;;;;;;;17.45;60.04;101438.56;5063118;28;20200;-68
2022/04/15 08:14:17;;;;;;;28.43;18.23;;;;;;;17.44;59.40;101434.22;5071807;28;20304;-68
2022/04/15 08:16:46;;;;;;;23.87;18.60;;;;;;;17.57;60.33;101431.03;5067613;28;20206;-68
2022/04/15 08:19:14;;;;;;;23.80;18.90;;;;;;;17.60;59.94;101431.50;5065415;28;20231;-68
2022/04/15 08:21:42;;;;;;;22.80;17.50;;;;;;;17.89;58.85;101430.13;5062687;28;20211;-68
2022/04/15 08:24:10;;;;;;;20.97;17.00;;;;;;;17.97;58.10;101438.16;5064559;28;20311;-67
2022/04/15 08:26:37;;;;;;;21.40;16.37;;;;;;;18.04;57.41;101434.59;5068678;28;20237;-68
2022/04/15 08:29:05;;;;;;;23.60;15.37;;;;;;;18.24;56.51;101444.91;5068247;28;20200;-68
2022/04/15 08:31:33;;;;;;;22.20;15.47;;;;;;;18.23;55.63;101438.72;5067884;28;20208;-67
2022/04/15 08:34:02;;;;;;;19.60;15.93;;;;;;;18.27;56.03;101444.59;5065688;28;20302;-68
2022/04/15 08:36:30;;;;;;;22.97;16.57;;;;;;;18.33;56.46;101444.72;5068358;28;20221;-68
2022/04/15 08:38:58;;;;;;;22.70;17.47;;;;;;;18.39;56.77;101438.63;5067901;28;20223;-68
2022/04/15 08:41:29;;;;;;;23.13;16.73;;;;;;;18.47;56.33;101440.44;5066419;28;20218;-68
2022/04/15 08:43:58;;;;;;;20.90;16.67;;;;;;;18.61;55.69;101447.78;5067998;28;20205;-68
2022/04/15 08:46:29;;;;;;;23.73;16.20;;;;;;;18.65;55.70;101448.25;5066100;28;20227;-68
2022/04/15 08:48:57;;;;;;;20.57;16.10;;;;;;;18.69;55.56;101444.22;5066654;28;20647;-68
2022/04/15 08:51:27;;;;;;;22.80;14.73;;;;;;;18.81;54.82;101445.50;5061909;28;20219;-68
2022/04/15 08:53:56;;;;;;;17.87;13.77;;;;;;;18.87;54.07;101446.63;5066942;28;20840;-67
2022/04/15 08:56:24;;;;;;;18.33;13.13;;;;;;;18.94;53.84;101440.34;5064166;28;20214;-67
2022/04/15 08:58:52;;;;;;;20.77;13.20;;;;;;;19.10;54.13;101439.38;5062313;28;20208;-67
2022/04/15 09:01:20;;;;;;;19.10;15.07;;;;;;;18.99;53.43;101447.88;5062580;28;20207;-68
2022/04/15 09:03:48;;;;;;;20.27;15.27;;;;;;;19.05;54.20;101439.94;5062797;28;20204;-70
2022/04/15 09:06:16;;;;;;;21.87;15.07;;;;;;;19.23;53.99;101446.84;5063363;28;20211;-67
2022/04/15 09:09:02;;;;;;;17.10;13.47;;;;;;;19.39;52.80;101441.31;5062496;28;20233;-70
2022/04/15 09:11:34;;;;;;;13.67;11.40;;;;;;;19.63;54.18;101442.97;5063364;28;20568;-72
2022/04/15 09:14:08;;;;;;;15.30;10.90;;;;;;;19.74;51.75;101446.06;5063864;28;20874;-71
2022/04/15 09:16:39;;;;;;;13.03;10.20;;;;;;;19.78;50.56;101435.75;5065881;28;20707;-73
2022/04/15 09:19:10;;;;;;;18.23;11.23;;;;;;;20.05;51.92;101445.06;5065959;28;20215;-71
2022/04/15 09:21:39;;;;;;;13.07;9.80;;;;;;;20.27;50.95;101449.47;5064808;28;20204;-66
2022/04/15 09:24:08;;;;;;;12.37;9.40;;;;;;;20.31;50.36;101440.00;5066576;28;20211;-71
2022/04/15 09:26:38;;;;;;;12.07;9.43;;;;;;;20.40;49.92;101443.47;5062250;28;20211;-71
2022/04/15 09:29:05;;;;;;;13.33;8.63;;;;;;;20.41;49.21;101437.84;5062435;28;20655;-69
2022/04/15 09:31:33;;;;;;;12.10;9.93;;;;;;;20.73;48.38;101438.44;5064852;28;20205;-69
2022/04/15 09:34:02;;;;;;;10.90;7.82;;;;;;;20.78;46.88;101434.13;5067691;28;20552;-68
2022/04/15 09:36:31;;;;;;;11.35;6.97;;;;;;;20.41;46.87;101432.47;5064981;28;20212;-68
2022/04/15 09:39:10;;;;;;;10.38;7.03;;;;;;;20.92;46.23;101432.44;5066563;28;20246;-68
2022/04/15 09:41:40;;;;;;;9.10;6.22;;;;;;;21.15;46.16;101433.03;5065098;28;20216;-68
2022/04/15 09:44:12;;;;;;;8.45;5.47;;;;;;;21.43;45.69;101434.97;5062527;28;20217;-69
2022/04/15 09:46:42;;;;;;;11.27;6.03;;;;;;;21.58;44.75;101436.53;5064737;28;20674;-69
2022/04/15 09:49:11;;;;;;;8.35;5.13;;;;;;;21.65;45.12;101432.00;5064218;28;20239;-69
2022/04/15 09:51:44;;;;;;;13.02;6.45;;;;;;;21.67;44.05;101431.81;5064999;28;20246;-69
2022/04/15 09:54:22;;;;;;;6.22;4.22;;;;;;;21.75;43.14;101437.06;5060403;28;20242;-70
2022/04/15 09:56:52;;;;;;;9.20;4.97;;;;;;;21.73;42.49;101436.41;5062487;28;20216;-68
2022/04/15 09:59:23;;;;;;;8.65;4.82;;;;;;;21.86;43.24;101439.22;5065142;28;20214;-70
2022/04/15 10:01:54;;;;;;;9.48;4.47;;;;;;;21.89;43.68;101438.00;5062772;28;20207;-70
2022/04/15 10:04:23;;;;;;;6.15;3.65;;;;;;;22.11;41.54;101436.88;5062362;28;20204;-69
2022/04/15 10:06:52;;;;;;;5.28;3.00;;;;;;;22.48;40.19;101433.72;5060306;28;20203;-68
2022/04/15 10:09:21;;;;;;;4.82;2.90;;;;;;;22.66;38.22;101433.16;5059627;28;20325;-68
2022/04/15 10:11:51;;;;;;;7.88;3.75;;;;;;;24.32;36.04;101424.75;5063441;28;20590;-70
2022/04/15 10:14:21;;;;;;;5.85;2.58;;;;;;;26.94;32.69;101433.31;5064164;28;20199;-71
2022/04/15 10:16:49;;;;;;;4.45;2.40;;;;;;;28.04;30.30;101422.59;5064813;28;20208;-70
2022/04/15 10:19:17;;;;;;;6.32;3.95;;;;;;;28.41;30.78;101419.53;5058144;28;20267;-70
2022/04/15 10:21:46;;;;;;;11.20;4.20;;;;;;;29.74;29.87;101421.56;5063428;28;20672;-69
2022/04/15 10:24:17;;;;;;;8.02;5.13;;;;;;;29.64;29.85;101420.59;5064446;28;20286;-70
2022/04/15 10:26:46;;;;;;;10.93;4.13;;;;;;;26.46;31.04;101411.63;5069437;28;20264;-70
2022/04/15 10:29:16;;;;;;;4.40;2.70;;;;;;;29.95;27.47;101411.75;5063434;28;20228;-69
2022/04/15 10:31:46;;;;;;;8.93;3.92;;;;;;;30.06;27.48;101401.78;5062127;28;20575;-70
2022/04/15 10:34:15;;;;;;;16.40;6.32;;;;;;;29.95;28.33;101403.56;5062019;28;20579;-69
2022/04/15 10:36:48;;;;;;;20.23;5.55;;;;;;;26.97;32.38;101399.38;5059394;28;20569;-71
2022/04/15 10:39:23;;;;;;;8.98;3.75;;;;;;;24.33;36.88;101407.44;5060035;28;20203;-70
2022/04/15 10:41:53;;;;;;;10.05;3.85;;;;;;;23.00;39.23;101409.72;5062941;28;20215;-67
2022/04/15 10:44:30;;;;;;;10.98;4.50;;;;;;;22.44;40.10;101410.81;5062209;28;20462;-66
2022/04/15 10:47:00;;;;;;;6.50;4.25;;;;;;;22.14;40.16;101396.81;5063924;28;20221;-68
2022/04/15 10:49:30;;;;;;;8.55;3.92;;;;;;;21.87;41.57;101405.78;5062689;28;20326;-69
2022/04/15 10:52:03;;;;;;;6.72;4.30;;;;;;;21.63;41.83;101399.00;5066247;28;20237;-70
2022/04/15 10:54:42;;;;;;;6.65;3.03;;;;;;;21.57;42.59;101398.94;5066266;28;20314;-66
2022/04/15 10:57:14;;;;;;;4.88;1.58;;;;;;;21.44;39.94;101397.00;5066278;28;20290;-69
2022/04/15 11:02:43;;;;;;;4.65;1.92;;;;;;;21.25;40.80;101398.53;5062613;28;20195;-69
2022/04/15 11:05:13;;;;;;;13.77;2.35;;;;;;;21.12;42.80;101398.38;5063059;28;20215;-67
2022/04/15 11:07:51;;;;;;;3.20;1.55;;;;;;;21.02;42.89;101397.88;5064366;28;20565;-68
2022/04/15 11:10:44;;;;;;;4.28;1.52;;;;;;;21.01;42.35;101404.31;5064080;28;20825;-68
2022/04/15 11:13:32;;;;;;;2.20;1.00;;;;;;;21.07;42.31;101400.81;5062828;28;20295;-68
2022/04/15 11:16:10;;;;;;;2.53;0.82;;;;;;;21.09;42.14;101404.16;5062817;28;20303;-71
2022/04/15 11:18:50;;;;;;;2.80;1.02;;;;;;;21.02;41.29;101389.81;5060125;28;20196;-70
2022/04/15 11:21:27;;;;;;;3.35;1.10;;;;;;;20.91;41.61;101398.41;5060891;28;20203;-69
2022/04/15 11:23:57;;;;;;;3.15;1.00;;;;;;;21.00;40.63;101391.84;5062795;28;20294;-71